ADDS METAR Data INFO
IDs: Format: Raw Decoded Include TAF

Data at: 0233 UTC 22 Jul 2017

KBYG 220153Z AUTO 33007KT 10SM CLR 26/03 A3008 RMK AO2 SLP121 T02610028
KBYG 220053Z AUTO 35007KT 10SM CLR 29/02 A3007 RMK AO2 SLP113 T02890022
KBYG 212353Z AUTO 36007KT 10SM CLR 30/02 A3007 RMK AO2 SLP113 T03000022 10306 20267 56009
KBYG 212253Z AUTO 01009KT 10SM CLR 30/02 A3008 RMK AO2 SLP117 T03000022
KBYG 212153Z AUTO VRB05KT 10SM CLR 30/02 A3009 RMK AO2 SLP123 T03000017
KBYG 212053Z AUTO 00000KT 10SM CLR 28/01 A3010 RMK AO2 SLP130 T02830011 58006
KBYG 211953Z AUTO 01009KT 10SM CLR 29/02 A3012 RMK AO2 SLP133 T02890022
KBYG 211853Z AUTO 36010G17KT 10SM CLR 28/03 A3013 RMK AO2 SLP138 T02780028
KBYG 211753Z AUTO 34013G19KT 10SM CLR 27/02 A3012 RMK AO2 SLP133 T02670022 10267 20200 53007
KBYG 211653Z AUTO 35020G24KT 10SM CLR 26/04 A3011 RMK AO2 SLP128 T02560044
KBYG 211553Z AUTO 35014KT 10SM CLR 24/03 A3011 RMK AO2 PK WND 32028/1502 SLP132 T02440033
KBYG 211453Z AUTO 33017G22KT 10SM CLR 23/04 A3010 RMK AO2 SLP128 T02280044 51019
KBYG 211353Z AUTO 01007KT 10SM CLR 22/08 A3009 RMK AO2 SLP128 T02170083
KBYG 211253Z AUTO 33017G20KT 10SM CLR 21/08 A3006 RMK AO2 SLP120 T02060083
KBYG 211153Z AUTO 32015G23KT 10SM CLR 21/08 A3003 RMK AO2 SLP107 70006 T02110083 10233 20156 53020
KBYG 211053Z AUTO 35012KT 10SM CLR 21/08 A3001 RMK AO2 SLP094 T02060083
KBYG 210953Z AUTO 25003KT 10SM CLR 18/09 A2997 RMK AO2 SLP075 T01830094
KBYG 210853Z AUTO 00000KT 10SM CLR 18/09 A2996 RMK AO2 SLP069 T01830089 58007
KBYG 210753Z AUTO 00000KT 10SM CLR 18/11 A2997 RMK AO2 SLP072 T01830106
KBYG 210653Z AUTO 14011KT 10SM CLR 20/11 A2998 RMK AO2 SLP076 T02000111 403780172
KBYG 210553Z AUTO 14004KT 10SM CLR 23/08 A2999 RMK AO2 SLP076 60006 T02330083 10267 20211 55008
KBYG 210453Z AUTO 16016KT 10SM CLR 23/09 A2997 RMK AO2 SLP073 T02330089
KBYG 210353Z AUTO 14006KT 10SM CLR 22/11 A2999 RMK AO2 SLP085 T02220111 $
KBYG 210253Z AUTO 13008KT 10SM FEW060 BKN070 OVC110 23/11 A3001 RMK AO2 RAB0154E20 PRESFR SLP097 P0000 60006 T02330106 58007 $
KBYG 210153Z AUTO 34009KT 10SM OVC100 24/09 A3009 RMK AO2 PK WND 33030/0108 LTG DSNT SE RAB39E49 SLP126 P0000 T02390094 $
KBYG 210101Z AUTO 32019G29KT 10SM FEW019 BKN100 BKN120 23/11 A3004 RMK AO2 LTG DSNT SE AND S T02280111 $
KBYG 210053Z AUTO 32019G30KT 10SM VCTS FEW019 BKN110 22/12 A3004 RMK AO2 PK WND 34031/0033 LTG DSNT NE-S RAE52 TSB30E46 PRESRR SLP116 P0006 T02220117 $
KBYG 210030Z AUTO 34020G28KT 8SM -TSRA BKN110 22/12 A3002 RMK AO2 PK WND 34028/0008 LTG DSNT ALQDS TSB30 P0006 T02170117 $
KBYG 210019Z AUTO 33017G26KT 5SM +RA FEW060 BKN110 22/11 A3002 RMK AO2 PK WND 34028/0008 LTG DSNT N AND S P0005 T02170111 $
KBYG 210004Z AUTO 32017G24KT 10SM VCTS -RA FEW060 FEW075 BKN110 23/10 A3002 RMK AO2 LTG DSNT NW P0000 T02330100 $
KBYG 202353Z AUTO 32016G25KT 10SM -RA SCT120 24/09 A3001 RMK AO2 PK WND 32038/2308 LTG DSNT SW-NW RAB20 SLP103 P0000 60000 T02440089 10378 20244 53004 $
KBYG 201553Z AUTO 14012KT 10SM CLR 29/12 A3009 RMK AO2 SLP117 T02890117
KBYG 201453Z AUTO 15012KT 10SM CLR 24/12 A3010 RMK AO2 SLP127 T02390117 53001